createdAt,value
2019-03-24T00:01:53.729Z,17.83
2019-03-24T00:04:21.639Z,13.80
2019-03-24T00:06:49.537Z,20.20
2019-03-24T00:09:19.314Z,14.27
2019-03-24T00:11:47.257Z,12.07
2019-03-24T00:14:15.216Z,16.43
2019-03-24T00:16:43.107Z,17.00
2019-03-24T00:19:11.066Z,16.60
2019-03-24T00:21:39.027Z,12.90
2019-03-24T00:24:06.971Z,17.37
2019-03-24T00:26:35.028Z,14.60
2019-03-24T00:29:02.972Z,13.57
2019-03-24T00:31:30.887Z,12.30
2019-03-24T00:33:58.826Z,12.20
2019-03-24T00:36:26.716Z,13.80
2019-03-24T00:38:54.640Z,14.90
2019-03-24T00:41:22.565Z,14.80
2019-03-24T00:43:52.384Z,16.03
2019-03-24T00:46:20.306Z,16.60
2019-03-24T00:48:48.237Z,14.87
2019-03-24T00:51:16.130Z,18.30
2019-03-24T00:53:44.110Z,18.67
2019-03-24T00:56:12.050Z,20.43
2019-03-24T00:58:39.956Z,16.17
2019-03-24T01:01:07.881Z,16.27
2019-03-24T01:03:35.810Z,13.17
2019-03-24T01:06:03.741Z,12.60
2019-03-24T01:08:31.657Z,15.00
2019-03-24T01:10:59.581Z,16.77
2019-03-24T01:13:27.507Z,13.50
2019-03-24T01:15:55.394Z,15.03
2019-03-24T01:18:23.446Z,15.33
2019-03-24T01:20:51.429Z,13.73
2019-03-24T01:23:19.312Z,18.57
2019-03-24T01:25:47.578Z,17.53
2019-03-24T01:28:15.483Z,18.43
2019-03-24T01:30:43.430Z,19.10
2019-03-24T01:33:11.338Z,19.80
2019-03-24T01:35:39.277Z,23.33
2019-03-24T01:38:07.211Z,18.20
2019-03-24T01:40:35.165Z,17.13
2019-03-24T01:43:03.074Z,15.70
2019-03-24T01:45:31.030Z,18.07
2019-03-24T01:47:58.945Z,16.27
2019-03-24T01:50:26.864Z,14.90
2019-03-24T01:52:54.867Z,16.37
2019-03-24T01:55:22.831Z,18.10
2019-03-24T01:57:50.701Z,20.80
2019-03-24T02:00:18.649Z,17.77
2019-03-24T02:02:46.557Z,17.33
2019-03-24T02:05:14.534Z,20.67
2019-03-24T02:07:43.874Z,22.03
2019-03-24T02:10:12.222Z,21.03
2019-03-24T02:12:40.191Z,16.30
2019-03-24T02:15:09.310Z,18.20
2019-03-24T02:17:37.221Z,17.03
2019-03-24T02:20:06.483Z,22.23
2019-03-24T02:22:34.387Z,20.87
2019-03-24T02:25:02.373Z,22.60
2019-03-24T02:27:30.250Z,22.77
2019-03-24T02:29:58.225Z,21.77
2019-03-24T02:32:26.137Z,20.23
2019-03-24T02:34:54.078Z,18.43
2019-03-24T02:37:22.000Z,19.33
2019-03-24T02:39:49.908Z,23.93
2019-03-24T02:42:17.868Z,18.67
2019-03-24T02:44:45.781Z,21.77
2019-03-24T02:47:13.675Z,21.53
2019-03-24T02:49:47.943Z,25.17
2019-03-24T02:52:15.875Z,29.03
2019-03-24T02:54:43.790Z,22.60
2019-03-24T02:57:11.695Z,21.60
2019-03-24T02:59:39.602Z,21.90
2019-03-24T03:02:07.547Z,22.63
2019-03-24T03:04:35.510Z,22.10
2019-03-24T03:07:03.589Z,18.70
2019-03-24T03:09:31.521Z,17.40
2019-03-24T03:11:59.571Z,22.70
2019-03-24T03:14:27.422Z,17.37
2019-03-24T03:16:55.358Z,19.53
2019-03-24T03:19:23.307Z,21.57
2019-03-24T03:21:51.255Z,16.00
2019-03-24T03:24:19.213Z,21.37
2019-03-24T03:26:47.154Z,27.03
2019-03-24T03:29:15.185Z,20.47
2019-03-24T03:31:43.351Z,20.00
2019-03-24T03:34:11.259Z,18.47
2019-03-24T03:36:39.213Z,20.13
2019-03-24T03:39:07.189Z,21.93
2019-03-24T03:41:35.117Z,19.80
2019-03-24T03:44:03.618Z,22.57
2019-03-24T03:46:31.536Z,23.60
2019-03-24T03:48:59.473Z,18.67
2019-03-24T03:51:27.398Z,22.23
2019-03-24T03:53:55.339Z,18.37
2019-03-24T03:56:23.329Z,17.10
2019-03-24T03:58:51.313Z,23.20
2019-03-24T04:01:19.253Z,20.90
2019-03-24T04:03:47.174Z,17.67
2019-03-24T04:06:15.100Z,16.63
2019-03-24T04:08:43.060Z,20.37
2019-03-24T04:11:10.980Z,17.03
2019-03-24T04:13:38.906Z,15.87
2019-03-24T04:16:06.833Z,21.13
2019-03-24T04:18:34.847Z,19.00
2019-03-24T04:21:02.759Z,18.93
2019-03-24T04:23:30.719Z,22.30
2019-03-24T04:25:58.587Z,16.27
2019-03-24T04:28:26.559Z,14.40
2019-03-24T04:30:54.460Z,23.43
2019-03-24T04:33:22.370Z,17.43
2019-03-24T04:35:52.131Z,18.63
2019-03-24T04:38:20.030Z,23.30
2019-03-24T04:40:47.942Z,22.03
2019-03-24T04:43:15.890Z,16.53
2019-03-24T04:45:43.792Z,15.83
2019-03-24T04:48:11.718Z,18.80
2019-03-24T04:50:39.592Z,16.83
2019-03-24T04:53:07.608Z,16.93
2019-03-24T04:55:35.534Z,14.47
2019-03-24T04:58:03.480Z,15.40
2019-03-24T05:00:35.049Z,20.83
2019-03-24T05:03:03.077Z,19.87
2019-03-24T05:05:31.119Z,16.37
2019-03-24T05:07:59.362Z,17.07
2019-03-24T05:10:27.416Z,17.00
2019-03-24T05:12:55.383Z,14.87
2019-03-24T05:15:23.334Z,17.83
2019-03-24T05:17:55.501Z,18.00
2019-03-24T05:20:23.358Z,20.03
2019-03-24T05:22:51.311Z,16.17
2019-03-24T05:25:19.247Z,16.90
2019-03-24T05:27:47.201Z,18.07
2019-03-24T05:30:15.078Z,17.63
2019-03-24T05:32:42.997Z,18.40
2019-03-24T05:35:11.006Z,16.13
2019-03-24T05:37:39.108Z,18.37
2019-03-24T05:40:07.036Z,20.87
2019-03-24T05:42:34.957Z,14.60
2019-03-24T05:45:02.881Z,21.87
2019-03-24T05:47:37.009Z,17.83
2019-03-24T05:50:00.513Z,15.30
2019-03-24T05:52:28.431Z,18.97
2019-03-24T05:54:56.358Z,13.83
2019-03-24T05:57:24.249Z,16.17
2019-03-24T05:59:52.211Z,15.80
2019-03-24T06:02:20.079Z,18.60
2019-03-24T06:04:48.005Z,16.90
2019-03-24T06:07:16.068Z,16.70
2019-03-24T06:09:46.993Z,22.47
2019-03-24T06:12:14.980Z,15.87
2019-03-24T06:14:42.941Z,15.83
2019-03-24T06:17:10.836Z,19.67
2019-03-24T06:19:38.780Z,19.90
2019-03-24T06:22:06.663Z,17.67
2019-03-24T06:24:34.625Z,13.87
2019-03-24T06:27:02.565Z,19.63
2019-03-24T06:29:30.513Z,19.37
2019-03-24T06:31:58.484Z,15.13
2019-03-24T06:34:26.462Z,17.43
2019-03-24T06:36:54.393Z,23.00
2019-03-24T06:39:22.352Z,25.23
2019-03-24T06:41:50.299Z,18.77
2019-03-24T06:44:18.429Z,20.13
2019-03-24T06:46:46.419Z,18.40
2019-03-24T06:49:14.289Z,20.00
2019-03-24T06:51:42.275Z,15.70
2019-03-24T06:54:10.189Z,18.37
2019-03-24T06:56:38.100Z,21.87
2019-03-24T06:59:06.036Z,20.47
2019-03-24T07:01:33.958Z,19.93
2019-03-24T07:04:08.039Z,19.40
2019-03-24T07:06:36.016Z,22.03
2019-03-24T07:09:05.113Z,19.03
2019-03-24T07:11:33.054Z,23.93
2019-03-24T07:14:00.946Z,21.23
2019-03-24T07:16:28.913Z,21.47
2019-03-24T07:18:56.841Z,15.70
2019-03-24T07:21:24.819Z,19.43
2019-03-24T07:23:52.730Z,19.40
2019-03-24T07:26:20.717Z,21.20
2019-03-24T07:28:48.645Z,15.40
2019-03-24T07:31:16.625Z,18.60
2019-03-24T07:33:44.545Z,19.20
2019-03-24T07:36:12.493Z,22.23
2019-03-24T07:38:40.397Z,15.90
2019-03-24T07:41:08.368Z,22.50
2019-03-24T07:43:36.275Z,18.57
2019-03-24T07:46:09.889Z,17.13
2019-03-24T07:48:37.784Z,15.50
2019-03-24T07:51:05.718Z,16.27
2019-03-24T07:53:33.641Z,18.87
2019-03-24T07:56:01.614Z,21.63
2019-03-24T07:58:29.525Z,20.57
2019-03-24T08:00:57.483Z,22.93
2019-03-24T08:03:25.382Z,23.73
2019-03-24T08:05:53.317Z,20.40
2019-03-24T08:08:21.237Z,18.83
2019-03-24T08:10:49.170Z,18.17
2019-03-24T08:13:17.146Z,19.63
2019-03-24T08:15:45.068Z,22.30
2019-03-24T08:18:12.999Z,20.70
2019-03-24T08:20:40.935Z,16.67
2019-03-24T08:23:10.471Z,25.90
2019-03-24T08:25:38.497Z,24.07
2019-03-24T08:28:07.624Z,22.17
2019-03-24T08:30:36.967Z,19.63
2019-03-24T08:33:04.911Z,22.10
2019-03-24T08:35:32.971Z,17.80
2019-03-24T08:38:00.938Z,20.90
2019-03-24T08:40:28.842Z,21.07
2019-03-24T08:42:56.817Z,23.70
2019-03-24T08:45:25.467Z,18.63
2019-03-24T08:47:53.472Z,22.00
2019-03-24T08:50:21.430Z,21.77
2019-03-24T08:52:49.453Z,18.13
2019-03-24T08:55:17.343Z,20.53
2019-03-24T08:57:45.258Z,18.47
2019-03-24T09:00:13.241Z,17.80
2019-03-24T09:02:41.180Z,20.53
2019-03-24T09:05:09.117Z,16.67
2019-03-24T09:07:37.174Z,15.80
2019-03-24T09:10:05.140Z,16.23
2019-03-24T09:12:33.100Z,20.90
2019-03-24T09:15:00.988Z,19.10
2019-03-24T09:17:28.957Z,17.00
2019-03-24T09:19:56.943Z,15.77
2019-03-24T09:22:25.058Z,18.33
2019-03-24T09:24:52.958Z,15.47
2019-03-24T09:27:20.905Z,20.57
2019-03-24T09:29:48.843Z,18.23
2019-03-24T09:32:16.746Z,15.33
2019-03-24T09:34:45.882Z,14.60
2019-03-24T09:37:13.872Z,13.27
2019-03-24T09:39:41.816Z,13.10
2019-03-24T09:42:09.689Z,14.57
2019-03-24T09:44:37.618Z,12.50
2019-03-24T09:47:05.598Z,14.13
2019-03-24T09:49:33.525Z,14.73
2019-03-24T09:52:01.414Z,15.20
2019-03-24T09:54:29.370Z,12.17
2019-03-24T09:56:57.546Z,11.83
2019-03-24T09:59:25.830Z,12.87
2019-03-24T10:01:53.698Z,12.90
2019-03-24T10:04:21.939Z,12.73
2019-03-24T10:06:49.828Z,15.50
2019-03-24T10:09:19.938Z,14.63
2019-03-24T10:11:49.186Z,15.60
2019-03-24T10:14:17.136Z,15.37
2019-03-24T10:16:45.037Z,14.63
2019-03-24T10:19:14.278Z,10.67
2019-03-24T10:21:42.791Z,14.53
2019-03-24T10:24:11.080Z,13.50
2019-03-24T10:26:39.288Z,13.87
2019-03-24T10:29:07.512Z,14.60
2019-03-24T10:31:35.782Z,15.43
2019-03-24T10:34:03.963Z,11.87
2019-03-24T10:36:32.252Z,11.77
2019-03-24T10:39:00.521Z,17.43
2019-03-24T10:41:28.834Z,15.83
2019-03-24T10:43:57.143Z,19.20
2019-03-24T10:46:25.346Z,14.63
2019-03-24T10:48:53.554Z,17.20
2019-03-24T10:51:21.754Z,11.10
2019-03-24T10:53:49.990Z,13.95
2019-03-24T10:56:18.201Z,16.27
2019-03-24T10:58:46.407Z,15.00
2019-03-24T11:01:14.670Z,17.23
2019-03-24T11:03:42.990Z,16.05
2019-03-24T11:06:11.202Z,13.13
2019-03-24T11:08:39.472Z,13.18
2019-03-24T11:11:07.598Z,18.05
2019-03-24T11:13:35.803Z,16.80
2019-03-24T11:16:04.079Z,19.12
2019-03-24T11:18:32.211Z,15.68
2019-03-24T11:21:00.401Z,16.57
2019-03-24T11:23:29.533Z,16.90
2019-03-24T11:25:58.296Z,18.85
2019-03-24T11:28:26.505Z,15.30
2019-03-24T11:30:54.805Z,14.65
2019-03-24T11:33:23.598Z,16.65
2019-03-24T11:35:51.762Z,14.75
2019-03-24T11:38:19.956Z,14.23
2019-03-24T11:40:48.180Z,16.00
2019-03-24T11:43:16.403Z,12.80
2019-03-24T11:45:44.623Z,10.88
2019-03-24T11:48:13.384Z,10.28
2019-03-24T11:50:41.629Z,12.10
2019-03-24T11:53:09.832Z,10.43
2019-03-24T11:55:39.142Z,12.20
2019-03-24T11:58:07.402Z,12.43
2019-03-24T12:00:37.521Z,12.47
2019-03-24T12:03:05.726Z,12.88
2019-03-24T12:05:37.004Z,12.00
2019-03-24T12:08:05.257Z,12.10
2019-03-24T12:10:33.611Z,9.88
2019-03-24T12:13:01.904Z,13.05
2019-03-24T12:15:31.100Z,9.18
2019-03-24T12:17:59.257Z,13.70
2019-03-24T12:20:27.530Z,10.85
2019-03-24T12:22:55.769Z,12.00
2019-03-24T12:25:24.052Z,9.25
2019-03-24T12:27:52.288Z,10.85
2019-03-24T12:30:20.481Z,10.23
2019-03-24T12:32:48.781Z,7.95
2019-03-24T12:35:17.012Z,9.40
2019-03-24T12:37:45.167Z,6.55
2019-03-24T12:40:14.448Z,6.78
2019-03-24T12:42:42.732Z,5.33
2019-03-24T12:45:12.526Z,10.23
2019-03-24T12:47:40.784Z,4.50
2019-03-24T12:50:10.764Z,6.27
2019-03-24T12:52:38.970Z,7.20
2019-03-24T12:55:07.428Z,6.53
2019-03-24T12:57:35.592Z,7.13
2019-03-24T13:00:05.474Z,9.90
2019-03-24T13:02:33.644Z,7.10
2019-03-24T13:05:01.858Z,6.47
2019-03-24T13:07:30.107Z,6.47
2019-03-24T13:09:58.318Z,6.00
2019-03-24T13:12:38.839Z,4.80
2019-03-24T13:15:07.641Z,8.33
2019-03-24T13:17:35.822Z,8.17
2019-03-24T13:20:04.402Z,7.20
2019-03-24T13:22:32.528Z,8.87
2019-03-24T13:25:00.747Z,9.40
2019-03-24T13:27:28.909Z,11.23
2019-03-24T13:29:57.060Z,9.20
2019-03-24T13:32:25.207Z,8.15
2019-03-24T13:34:53.349Z,8.03
2019-03-24T13:37:21.489Z,9.03
2019-03-24T13:39:49.653Z,6.55
2019-03-24T13:42:17.809Z,7.42
2019-03-24T13:44:45.980Z,8.30
2019-03-24T13:47:14.177Z,7.15
2019-03-24T13:49:42.338Z,6.67
2019-03-24T13:52:10.548Z,9.98
2019-03-24T13:54:38.694Z,7.55
2019-03-24T13:57:07.889Z,8.45
2019-03-24T13:59:36.064Z,7.28
2019-03-24T14:02:04.649Z,10.00
2019-03-24T14:04:32.760Z,9.38
2019-03-24T14:07:00.954Z,7.70
2019-03-24T14:09:29.152Z,7.95
2019-03-24T14:11:57.329Z,6.87
2019-03-24T14:14:30.243Z,7.90
2019-03-24T14:16:58.408Z,7.20
2019-03-24T14:19:26.630Z,6.17
2019-03-24T14:21:54.789Z,5.57
2019-03-24T14:24:22.930Z,8.50
2019-03-24T14:26:51.098Z,9.80
2019-03-24T14:29:19.234Z,8.87
2019-03-24T14:31:47.391Z,6.27
2019-03-24T14:34:15.565Z,7.83
2019-03-24T14:36:45.342Z,7.10
2019-03-24T14:39:13.480Z,8.10
2019-03-24T14:41:41.677Z,7.00
2019-03-24T14:44:09.835Z,9.03
2019-03-24T14:46:38.030Z,12.82
2019-03-24T14:49:06.149Z,7.05
2019-03-24T14:51:34.366Z,8.13
2019-03-24T14:54:02.553Z,7.80
2019-03-24T14:56:30.693Z,8.78
2019-03-24T14:58:58.850Z,6.70
2019-03-24T15:01:27.018Z,6.40
2019-03-24T15:03:55.177Z,6.37
2019-03-24T15:06:23.060Z,6.90
2019-03-24T15:08:51.216Z,4.62
2019-03-24T15:11:19.390Z,6.92
2019-03-24T15:13:47.525Z,6.53
2019-03-24T15:16:15.700Z,7.72
2019-03-24T15:18:43.875Z,6.45
2019-03-24T15:21:12.027Z,5.62
2019-03-24T15:23:40.208Z,6.67
2019-03-24T15:26:08.394Z,7.17
2019-03-24T15:28:36.566Z,7.70
2019-03-24T15:31:04.735Z,6.40
2019-03-24T15:33:32.866Z,8.83
2019-03-24T15:36:01.030Z,5.78
2019-03-24T15:38:29.161Z,8.53
2019-03-24T15:40:57.333Z,8.58
2019-03-24T15:43:25.495Z,6.87
2019-03-24T15:45:53.655Z,9.25
2019-03-24T15:48:21.813Z,8.18
2019-03-24T15:50:49.964Z,6.53
2019-03-24T15:53:18.178Z,9.65
2019-03-24T15:55:46.346Z,9.65
2019-03-24T15:58:14.574Z,9.93
2019-03-24T16:00:47.550Z,7.00
2019-03-24T16:03:16.781Z,7.20
2019-03-24T16:05:44.924Z,6.90
2019-03-24T16:08:13.099Z,8.43
2019-03-24T16:10:41.255Z,7.70
2019-03-24T16:13:09.412Z,4.80
2019-03-24T16:15:37.589Z,8.40
2019-03-24T16:18:05.739Z,10.60
2019-03-24T16:20:33.862Z,7.17
2019-03-24T16:23:02.024Z,9.83
2019-03-24T16:25:30.143Z,9.90
2019-03-24T16:27:58.300Z,11.43
2019-03-24T16:30:26.528Z,6.80
2019-03-24T16:32:54.430Z,11.00
2019-03-24T16:35:22.588Z,6.00
2019-03-24T16:37:50.741Z,8.90
2019-03-24T16:40:18.888Z,10.17
2019-03-24T16:42:47.047Z,10.53
2019-03-24T16:45:16.888Z,8.83
2019-03-24T16:47:44.985Z,11.70
2019-03-24T16:50:13.117Z,12.80
2019-03-24T16:52:41.400Z,11.03
2019-03-24T16:55:12.091Z,15.17
2019-03-24T16:57:39.789Z,16.10
2019-03-24T17:00:08.564Z,10.57
2019-03-24T17:02:36.721Z,12.70
2019-03-24T17:05:05.139Z,11.13
2019-03-24T17:07:33.307Z,12.07
2019-03-24T17:10:01.475Z,10.90
2019-03-24T17:12:29.618Z,14.13
2019-03-24T17:14:57.758Z,13.57
2019-03-24T17:17:25.966Z,11.23
2019-03-24T17:19:54.139Z,11.30
2019-03-24T17:22:22.296Z,7.90
2019-03-24T17:24:50.472Z,16.63
2019-03-24T17:27:18.613Z,11.33
2019-03-24T17:29:46.737Z,9.97
2019-03-24T17:32:14.882Z,11.43
2019-03-24T17:34:43.048Z,9.83
2019-03-24T17:37:11.176Z,11.20
2019-03-24T17:39:39.365Z,7.53
2019-03-24T17:42:07.492Z,11.33
2019-03-24T17:44:35.351Z,7.70
2019-03-24T17:47:03.530Z,9.87
2019-03-24T17:49:32.164Z,7.93
2019-03-24T17:52:01.115Z,9.77
2019-03-24T17:54:29.419Z,8.93
2019-03-24T17:56:57.561Z,8.57
2019-03-24T17:59:25.714Z,11.10
2019-03-24T18:01:53.861Z,9.97
2019-03-24T18:04:24.709Z,9.37
2019-03-24T18:06:52.053Z,9.07
2019-03-24T18:09:20.258Z,7.70
2019-03-24T18:11:48.407Z,8.07
2019-03-24T18:14:16.549Z,6.93
2019-03-24T18:16:44.872Z,6.77
2019-03-24T18:19:13.018Z,7.17
2019-03-24T18:21:41.131Z,7.87
2019-03-24T18:24:08.999Z,7.87
2019-03-24T18:26:37.141Z,11.20
2019-03-24T18:29:05.322Z,5.00
2019-03-24T18:31:33.520Z,5.70
2019-03-24T18:34:01.807Z,7.10
2019-03-24T18:36:29.940Z,6.37
2019-03-24T18:38:58.089Z,7.10
2019-03-24T18:41:26.214Z,5.97
2019-03-24T18:43:54.369Z,5.77
2019-03-24T18:46:22.558Z,9.17
2019-03-24T18:48:50.728Z,7.40
2019-03-24T18:51:18.879Z,9.20
2019-03-24T18:53:46.997Z,6.80
2019-03-24T18:56:15.197Z,8.23
2019-03-24T18:58:43.333Z,13.57
2019-03-24T19:01:11.526Z,8.20
2019-03-24T19:03:39.677Z,8.03
2019-03-24T19:06:07.864Z,8.10
2019-03-24T19:08:35.976Z,10.17
2019-03-24T19:11:04.132Z,11.23
2019-03-24T19:13:32.273Z,9.43
2019-03-24T19:16:00.437Z,10.60
2019-03-24T19:18:28.569Z,8.50
2019-03-24T19:20:56.733Z,11.07
2019-03-24T19:23:24.861Z,13.70
2019-03-24T19:25:52.689Z,10.70
2019-03-24T19:28:20.825Z,7.43
2019-03-24T19:30:49.018Z,6.63
2019-03-24T19:33:17.190Z,7.33
2019-03-24T19:35:45.387Z,12.63
2019-03-24T19:38:13.917Z,8.20
2019-03-24T19:40:42.097Z,10.87
2019-03-24T19:43:10.255Z,8.40
2019-03-24T19:45:38.451Z,8.87
2019-03-24T19:48:06.595Z,5.50
2019-03-24T19:50:34.751Z,8.43
2019-03-24T19:53:02.933Z,6.43
2019-03-24T19:55:31.116Z,11.90
2019-03-24T19:57:59.270Z,10.70
2019-03-24T20:00:27.430Z,8.03
2019-03-24T20:02:55.646Z,8.37
2019-03-24T20:05:23.504Z,8.13
2019-03-24T20:07:51.618Z,8.43
2019-03-24T20:10:19.757Z,10.03
2019-03-24T20:12:47.935Z,7.20
2019-03-24T20:15:16.738Z,8.23
2019-03-24T20:17:45.729Z,6.33
2019-03-24T20:20:15.629Z,11.03
2019-03-24T20:22:55.384Z,13.30
2019-03-24T20:25:14.908Z,10.20
2019-03-24T20:27:43.010Z,11.43
2019-03-24T20:30:11.742Z,7.13
2019-03-24T20:32:39.965Z,9.53
2019-03-24T20:35:08.188Z,8.53
2019-03-24T20:37:36.346Z,7.10
2019-03-24T20:40:05.109Z,13.47
2019-03-24T20:42:33.314Z,7.07
2019-03-24T20:45:01.498Z,13.03
2019-03-24T20:47:29.724Z,10.37
2019-03-24T20:49:57.870Z,12.57
2019-03-24T20:52:26.115Z,9.07
2019-03-24T20:54:54.295Z,7.67
2019-03-24T20:57:22.480Z,12.30
2019-03-24T20:59:52.032Z,9.93
2019-03-24T21:02:20.708Z,13.90
2019-03-24T21:04:48.873Z,9.97
2019-03-24T21:07:25.864Z,11.23
2019-03-24T21:09:53.976Z,9.03
2019-03-24T21:12:22.136Z,10.20
2019-03-24T21:14:50.277Z,11.97
2019-03-24T21:17:18.463Z,12.47
2019-03-24T21:19:46.256Z,15.83
2019-03-24T21:22:14.430Z,11.13
2019-03-24T21:24:42.580Z,13.20
2019-03-24T21:27:10.782Z,11.97
2019-03-24T21:29:38.977Z,11.97
2019-03-24T21:32:07.180Z,11.37
2019-03-24T21:34:35.321Z,12.50
2019-03-24T21:37:03.518Z,8.50
2019-03-24T21:39:31.726Z,9.07
2019-03-24T21:41:59.883Z,12.43
2019-03-24T21:44:28.039Z,9.97
2019-03-24T21:46:56.201Z,12.53
2019-03-24T21:49:32.367Z,7.97
2019-03-24T21:52:00.488Z,13.57
2019-03-24T21:54:28.618Z,11.10
2019-03-24T21:56:56.762Z,13.63
2019-03-24T21:59:24.945Z,12.03
2019-03-24T22:01:53.075Z,14.77
2019-03-24T22:04:21.245Z,14.50
2019-03-24T22:06:49.424Z,18.97
2019-03-24T22:09:17.573Z,20.13
2019-03-24T22:11:45.858Z,16.33
2019-03-24T22:14:15.542Z,17.27
2019-03-24T22:16:43.466Z,13.10
2019-03-24T22:19:11.444Z,14.80
2019-03-24T22:21:39.374Z,17.17
2019-03-24T22:24:07.353Z,12.97
2019-03-24T22:26:35.210Z,14.20
2019-03-24T22:29:03.156Z,11.47
2019-03-24T22:31:31.065Z,11.30
2019-03-24T22:33:58.985Z,14.40
2019-03-24T22:36:26.860Z,13.30
2019-03-24T22:38:55.200Z,9.43
2019-03-24T22:41:23.481Z,13.27
2019-03-24T22:43:51.957Z,12.27
2019-03-24T22:46:19.998Z,8.20
2019-03-24T22:48:47.903Z,11.50
2019-03-24T22:51:15.770Z,12.27
2019-03-24T22:53:43.662Z,9.43
2019-03-24T22:56:11.526Z,16.63
2019-03-24T22:58:39.408Z,9.67
2019-03-24T23:01:07.876Z,13.60
2019-03-24T23:03:35.779Z,10.57
2019-03-24T23:06:03.733Z,10.87
2019-03-24T23:08:31.621Z,9.10
2019-03-24T23:10:59.494Z,12.43
2019-03-24T23:13:27.407Z,9.00
2019-03-24T23:15:55.276Z,11.63
2019-03-24T23:18:23.136Z,11.07
2019-03-24T23:20:51.082Z,13.10
2019-03-24T23:23:18.940Z,8.33
2019-03-24T23:25:46.863Z,12.30
2019-03-24T23:28:14.735Z,9.33
2019-03-24T23:30:42.656Z,11.67
2019-03-24T23:33:10.525Z,11.73
2019-03-24T23:35:38.429Z,10.07
2019-03-24T23:38:06.286Z,12.50
2019-03-24T23:40:34.176Z,12.33
2019-03-24T23:43:02.055Z,12.33
2019-03-24T23:45:29.942Z,12.70
2019-03-24T23:47:57.836Z,11.47
2019-03-24T23:50:25.707Z,15.13
2019-03-24T23:52:53.688Z,8.90
2019-03-24T23:55:21.554Z,10.93
2019-03-24T23:57:49.425Z,16.93
